sensor_id;sensor_type;location;lat;lon;timestamp;P1;durP1;ratioP1;P2;durP2;ratioP2
20073;SDS011;10197;54.282;10.078;2022-07-23T00:02:11;7.13;;;1.80;;
20073;SDS011;10197;54.282;10.078;2022-07-23T00:04:40;3.97;;;1.90;;
20073;SDS011;10197;54.282;10.078;2022-07-23T00:07:07;3.83;;;1.42;;
20073;SDS011;10197;54.282;10.078;2022-07-23T00:09:34;2.65;;;1.67;;
20073;SDS011;10197;54.282;10.078;2022-07-23T00:12:02;4.00;;;2.03;;
20073;SDS011;10197;54.282;10.078;2022-07-23T00:14:29;5.35;;;1.73;;
20073;SDS011;10197;54.282;10.078;2022-07-23T00:16:56;5.57;;;2.20;;
20073;SDS011;10197;54.282;10.078;2022-07-23T00:19:23;4.75;;;1.58;;
20073;SDS011;10197;54.282;10.078;2022-07-23T00:21:52;5.05;;;1.80;;
20073;SDS011;10197;54.282;10.078;2022-07-23T00:24:18;3.80;;;2.33;;
20073;SDS011;10197;54.282;10.078;2022-07-23T00:26:45;2.72;;;1.60;;
20073;SDS011;10197;54.282;10.078;2022-07-23T00:29:13;3.90;;;1.98;;
20073;SDS011;10197;54.282;10.078;2022-07-23T00:31:39;4.75;;;2.00;;
20073;SDS011;10197;54.282;10.078;2022-07-23T00:34:07;3.60;;;1.63;;
20073;SDS011;10197;54.282;10.078;2022-07-23T00:36:33;3.25;;;1.63;;
20073;SDS011;10197;54.282;10.078;2022-07-23T00:39:01;2.38;;;1.50;;
20073;SDS011;10197;54.282;10.078;2022-07-23T00:41:28;3.28;;;1.40;;
20073;SDS011;10197;54.282;10.078;2022-07-23T00:43:55;6.07;;;1.80;;
20073;SDS011;10197;54.282;10.078;2022-07-23T00:46:22;4.55;;;1.60;;
20073;SDS011;10197;54.282;10.078;2022-07-23T00:48:50;5.63;;;1.90;;
20073;SDS011;10197;54.282;10.078;2022-07-23T00:51:17;5.72;;;2.08;;
20073;SDS011;10197;54.282;10.078;2022-07-23T00:53:44;5.55;;;1.98;;
20073;SDS011;10197;54.282;10.078;2022-07-23T00:56:13;3.47;;;1.92;;
20073;SDS011;10197;54.282;10.078;2022-07-23T00:58:40;4.30;;;1.80;;
20073;SDS011;10197;54.282;10.078;2022-07-23T01:01:08;6.97;;;1.77;;
20073;SDS011;10197;54.282;10.078;2022-07-23T01:03:35;4.25;;;1.90;;
20073;SDS011;10197;54.282;10.078;2022-07-23T01:06:02;3.42;;;1.80;;
20073;SDS011;10197;54.282;10.078;2022-07-23T01:08:29;3.53;;;1.65;;
20073;SDS011;10197;54.282;10.078;2022-07-23T01:10:56;4.47;;;1.90;;
20073;SDS011;10197;54.282;10.078;2022-07-23T01:13:24;5.03;;;2.17;;
20073;SDS011;10197;54.282;10.078;2022-07-23T01:15:51;4.40;;;1.88;;
20073;SDS011;10197;54.282;10.078;2022-07-23T01:18:18;4.45;;;1.70;;
20073;SDS011;10197;54.282;10.078;2022-07-23T01:20:45;3.65;;;1.83;;
20073;SDS011;10197;54.282;10.078;2022-07-23T01:23:13;5.22;;;1.88;;
20073;SDS011;10197;54.282;10.078;2022-07-23T01:25:49;3.55;;;1.60;;
20073;SDS011;10197;54.282;10.078;2022-07-23T01:28:18;4.40;;;1.70;;
20073;SDS011;10197;54.282;10.078;2022-07-23T01:30:45;5.15;;;1.88;;
20073;SDS011;10197;54.282;10.078;2022-07-23T01:33:13;6.40;;;1.75;;
20073;SDS011;10197;54.282;10.078;2022-07-23T01:35:40;3.95;;;1.80;;
20073;SDS011;10197;54.282;10.078;2022-07-23T01:38:08;3.97;;;1.80;;
20073;SDS011;10197;54.282;10.078;2022-07-23T01:40:39;4.07;;;1.92;;
20073;SDS011;10197;54.282;10.078;2022-07-23T01:43:06;6.45;;;2.10;;
20073;SDS011;10197;54.282;10.078;2022-07-23T01:45:35;8.93;;;2.30;;
20073;SDS011;10197;54.282;10.078;2022-07-23T01:48:02;6.70;;;2.00;;
20073;SDS011;10197;54.282;10.078;2022-07-23T01:50:30;5.25;;;2.20;;
20073;SDS011;10197;54.282;10.078;2022-07-23T01:53:16;5.97;;;2.00;;
20073;SDS011;10197;54.282;10.078;2022-07-23T01:55:44;5.97;;;1.95;;
20073;SDS011;10197;54.282;10.078;2022-07-23T01:58:11;4.80;;;2.05;;
20073;SDS011;10197;54.282;10.078;2022-07-23T02:00:39;6.10;;;2.22;;
20073;SDS011;10197;54.282;10.078;2022-07-23T02:03:06;6.03;;;2.13;;
20073;SDS011;10197;54.282;10.078;2022-07-23T02:05:33;4.93;;;2.20;;
20073;SDS011;10197;54.282;10.078;2022-07-23T02:08:02;7.32;;;2.20;;
20073;SDS011;10197;54.282;10.078;2022-07-23T02:10:34;2.95;;;1.75;;
20073;SDS011;10197;54.282;10.078;2022-07-23T02:13:04;5.25;;;2.28;;
20073;SDS011;10197;54.282;10.078;2022-07-23T02:15:31;4.00;;;2.15;;
20073;SDS011;10197;54.282;10.078;2022-07-23T02:17:58;8.02;;;2.25;;
20073;SDS011;10197;54.282;10.078;2022-07-23T02:20:25;5.93;;;2.05;;
20073;SDS011;10197;54.282;10.078;2022-07-23T02:22:51;5.15;;;2.00;;
20073;SDS011;10197;54.282;10.078;2022-07-23T02:25:18;3.20;;;2.00;;
20073;SDS011;10197;54.282;10.078;2022-07-23T02:27:45;2.97;;;1.92;;
20073;SDS011;10197;54.282;10.078;2022-07-23T02:30:14;3.72;;;1.77;;
20073;SDS011;10197;54.282;10.078;2022-07-23T02:32:40;5.20;;;2.17;;
20073;SDS011;10197;54.282;10.078;2022-07-23T02:35:09;6.20;;;2.00;;
20073;SDS011;10197;54.282;10.078;2022-07-23T02:37:36;3.92;;;2.05;;
20073;SDS011;10197;54.282;10.078;2022-07-23T02:40:03;4.97;;;2.30;;
20073;SDS011;10197;54.282;10.078;2022-07-23T02:42:34;4.65;;;2.00;;
20073;SDS011;10197;54.282;10.078;2022-07-23T02:45:03;4.40;;;1.83;;
20073;SDS011;10197;54.282;10.078;2022-07-23T02:47:31;6.50;;;2.15;;
20073;SDS011;10197;54.282;10.078;2022-07-23T02:49:59;7.82;;;2.35;;
20073;SDS011;10197;54.282;10.078;2022-07-23T02:52:28;2.65;;;1.75;;
20073;SDS011;10197;54.282;10.078;2022-07-23T02:54:55;4.50;;;1.88;;
20073;SDS011;10197;54.282;10.078;2022-07-23T02:57:22;7.45;;;2.35;;
20073;SDS011;10197;54.282;10.078;2022-07-23T02:59:48;3.17;;;1.80;;
20073;SDS011;10197;54.282;10.078;2022-07-23T03:02:17;4.43;;;1.90;;
20073;SDS011;10197;54.282;10.078;2022-07-23T03:04:45;8.75;;;2.50;;
20073;SDS011;10197;54.282;10.078;2022-07-23T03:07:12;6.28;;;2.33;;
20073;SDS011;10197;54.282;10.078;2022-07-23T03:09:39;6.97;;;2.00;;
20073;SDS011;10197;54.282;10.078;2022-07-23T03:12:07;5.53;;;2.20;;
20073;SDS011;10197;54.282;10.078;2022-07-23T03:14:34;4.63;;;2.20;;
20073;SDS011;10197;54.282;10.078;2022-07-23T03:17:01;4.32;;;2.00;;
20073;SDS011;10197;54.282;10.078;2022-07-23T03:19:28;3.70;;;1.98;;
20073;SDS011;10197;54.282;10.078;2022-07-23T03:21:56;6.13;;;2.13;;
20073;SDS011;10197;54.282;10.078;2022-07-23T03:24:23;7.60;;;2.25;;
20073;SDS011;10197;54.282;10.078;2022-07-23T03:27:10;5.45;;;2.33;;
20073;SDS011;10197;54.282;10.078;2022-07-23T03:29:37;3.45;;;2.35;;
20073;SDS011;10197;54.282;10.078;2022-07-23T03:32:04;4.65;;;2.45;;
20073;SDS011;10197;54.282;10.078;2022-07-23T03:34:31;5.30;;;2.38;;
20073;SDS011;10197;54.282;10.078;2022-07-23T03:37:00;5.80;;;2.20;;
20073;SDS011;10197;54.282;10.078;2022-07-23T03:39:27;5.15;;;1.90;;
20073;SDS011;10197;54.282;10.078;2022-07-23T03:41:54;4.75;;;1.83;;
20073;SDS011;10197;54.282;10.078;2022-07-23T03:44:21;3.00;;;1.65;;
20073;SDS011;10197;54.282;10.078;2022-07-23T03:46:48;5.50;;;1.98;;
20073;SDS011;10197;54.282;10.078;2022-07-23T03:49:15;3.53;;;1.90;;
20073;SDS011;10197;54.282;10.078;2022-07-23T03:51:42;4.63;;;1.92;;
20073;SDS011;10197;54.282;10.078;2022-07-23T03:54:10;2.58;;;1.80;;
20073;SDS011;10197;54.282;10.078;2022-07-23T03:56:37;5.43;;;2.35;;
20073;SDS011;10197;54.282;10.078;2022-07-23T03:59:05;6.47;;;2.15;;
20073;SDS011;10197;54.282;10.078;2022-07-23T04:01:32;3.67;;;1.80;;
20073;SDS011;10197;54.282;10.078;2022-07-23T04:03:59;7.47;;;1.90;;
20073;SDS011;10197;54.282;10.078;2022-07-23T04:06:26;5.00;;;1.98;;
20073;SDS011;10197;54.282;10.078;2022-07-23T04:08:54;5.90;;;2.30;;
20073;SDS011;10197;54.282;10.078;2022-07-23T04:11:22;3.88;;;1.60;;
20073;SDS011;10197;54.282;10.078;2022-07-23T04:13:50;4.57;;;1.80;;
20073;SDS011;10197;54.282;10.078;2022-07-23T04:16:20;6.30;;;1.52;;
20073;SDS011;10197;54.282;10.078;2022-07-23T04:18:47;4.78;;;1.80;;
20073;SDS011;10197;54.282;10.078;2022-07-23T04:21:20;3.45;;;1.73;;
20073;SDS011;10197;54.282;10.078;2022-07-23T04:23:48;5.25;;;1.90;;
20073;SDS011;10197;54.282;10.078;2022-07-23T04:26:14;3.58;;;1.60;;
20073;SDS011;10197;54.282;10.078;2022-07-23T04:28:43;4.80;;;1.90;;
20073;SDS011;10197;54.282;10.078;2022-07-23T04:31:10;4.57;;;1.70;;
20073;SDS011;10197;54.282;10.078;2022-07-23T04:33:38;3.67;;;1.70;;
20073;SDS011;10197;54.282;10.078;2022-07-23T04:36:07;6.18;;;1.73;;
20073;SDS011;10197;54.282;10.078;2022-07-23T04:38:34;3.33;;;1.40;;
20073;SDS011;10197;54.282;10.078;2022-07-23T04:41:02;6.18;;;1.95;;
20073;SDS011;10197;54.282;10.078;2022-07-23T04:43:29;3.47;;;1.77;;
20073;SDS011;10197;54.282;10.078;2022-07-23T04:45:57;2.60;;;1.70;;
20073;SDS011;10197;54.282;10.078;2022-07-23T04:48:25;3.28;;;1.60;;
20073;SDS011;10197;54.282;10.078;2022-07-23T04:50:59;7.38;;;1.70;;
20073;SDS011;10197;54.282;10.078;2022-07-23T04:53:28;5.15;;;2.03;;
20073;SDS011;10197;54.282;10.078;2022-07-23T04:55:59;4.88;;;1.77;;
20073;SDS011;10197;54.282;10.078;2022-07-23T04:58:26;3.17;;;1.63;;
20073;SDS011;10197;54.282;10.078;2022-07-23T05:00:53;4.68;;;1.70;;
20073;SDS011;10197;54.282;10.078;2022-07-23T05:03:24;9.68;;;2.85;;
20073;SDS011;10197;54.282;10.078;2022-07-23T05:05:53;4.30;;;1.52;;
20073;SDS011;10197;54.282;10.078;2022-07-23T05:08:21;3.92;;;1.52;;
20073;SDS011;10197;54.282;10.078;2022-07-23T05:10:50;3.58;;;1.67;;
20073;SDS011;10197;54.282;10.078;2022-07-23T05:13:22;3.33;;;1.60;;
20073;SDS011;10197;54.282;10.078;2022-07-23T05:15:51;4.40;;;1.65;;
20073;SDS011;10197;54.282;10.078;2022-07-23T05:18:18;4.10;;;2.05;;
20073;SDS011;10197;54.282;10.078;2022-07-23T05:20:47;6.60;;;1.65;;
20073;SDS011;10197;54.282;10.078;2022-07-23T05:23:17;3.47;;;1.63;;
20073;SDS011;10197;54.282;10.078;2022-07-23T05:25:44;4.00;;;2.15;;
20073;SDS011;10197;54.282;10.078;2022-07-23T05:28:11;3.67;;;1.67;;
20073;SDS011;10197;54.282;10.078;2022-07-23T05:30:38;4.10;;;1.60;;
20073;SDS011;10197;54.282;10.078;2022-07-23T05:33:08;3.08;;;1.63;;
20073;SDS011;10197;54.282;10.078;2022-07-23T05:35:35;5.32;;;2.28;;
20073;SDS011;10197;54.282;10.078;2022-07-23T05:38:18;6.72;;;2.53;;
20073;SDS011;10197;54.282;10.078;2022-07-23T05:40:46;5.57;;;2.13;;
20073;SDS011;10197;54.282;10.078;2022-07-23T05:43:12;6.38;;;2.17;;
20073;SDS011;10197;54.282;10.078;2022-07-23T05:45:40;4.63;;;2.00;;
20073;SDS011;10197;54.282;10.078;2022-07-23T05:48:07;4.15;;;2.03;;
20073;SDS011;10197;54.282;10.078;2022-07-23T05:50:42;5.28;;;2.17;;
20073;SDS011;10197;54.282;10.078;2022-07-23T05:53:22;3.67;;;1.77;;
20073;SDS011;10197;54.282;10.078;2022-07-23T05:56:18;5.90;;;1.85;;
20073;SDS011;10197;54.282;10.078;2022-07-23T05:58:46;7.38;;;2.03;;
20073;SDS011;10197;54.282;10.078;2022-07-23T06:01:15;3.28;;;1.98;;
20073;SDS011;10197;54.282;10.078;2022-07-23T06:03:49;3.42;;;1.75;;
20073;SDS011;10197;54.282;10.078;2022-07-23T06:06:16;6.53;;;2.25;;
20073;SDS011;10197;54.282;10.078;2022-07-23T06:08:44;5.65;;;2.22;;
20073;SDS011;10197;54.282;10.078;2022-07-23T06:11:13;4.05;;;2.00;;
20073;SDS011;10197;54.282;10.078;2022-07-23T06:13:41;4.55;;;2.10;;
20073;SDS011;10197;54.282;10.078;2022-07-23T06:16:08;5.45;;;1.80;;
20073;SDS011;10197;54.282;10.078;2022-07-23T06:18:35;6.53;;;1.88;;
20073;SDS011;10197;54.282;10.078;2022-07-23T06:21:02;4.00;;;1.98;;
20073;SDS011;10197;54.282;10.078;2022-07-23T06:23:31;4.07;;;2.00;;
20073;SDS011;10197;54.282;10.078;2022-07-23T06:25:59;4.80;;;1.77;;
20073;SDS011;10197;54.282;10.078;2022-07-23T06:59:40;7.60;;;2.45;;
20073;SDS011;10197;54.282;10.078;2022-07-23T07:02:07;7.28;;;2.65;;
20073;SDS011;10197;54.282;10.078;2022-07-23T07:04:34;5.50;;;2.15;;
20073;SDS011;10197;54.282;10.078;2022-07-23T07:07:01;5.63;;;2.30;;
20073;SDS011;10197;54.282;10.078;2022-07-23T07:09:28;7.68;;;2.50;;
20073;SDS011;10197;54.282;10.078;2022-07-23T07:11:55;6.85;;;2.35;;
20073;SDS011;10197;54.282;10.078;2022-07-23T07:14:22;4.75;;;2.15;;
20073;SDS011;10197;54.282;10.078;2022-07-23T07:20:53;6.60;;;1.95;;
20073;SDS011;10197;54.282;10.078;2022-07-23T07:23:20;6.60;;;2.53;;
20073;SDS011;10197;54.282;10.078;2022-07-23T07:25:47;4.55;;;2.00;;
20073;SDS011;10197;54.282;10.078;2022-07-23T07:28:14;8.63;;;2.75;;
20073;SDS011;10197;54.282;10.078;2022-07-23T07:30:42;6.80;;;2.70;;
20073;SDS011;10197;54.282;10.078;2022-07-23T07:33:10;8.25;;;2.20;;
20073;SDS011;10197;54.282;10.078;2022-07-23T07:35:37;3.25;;;1.85;;
20073;SDS011;10197;54.282;10.078;2022-07-23T07:38:04;6.88;;;2.15;;
20073;SDS011;10197;54.282;10.078;2022-07-23T07:40:30;6.53;;;2.58;;
20073;SDS011;10197;54.282;10.078;2022-07-23T07:42:57;6.13;;;2.20;;
20073;SDS011;10197;54.282;10.078;2022-07-23T07:45:24;3.58;;;1.83;;
20073;SDS011;10197;54.282;10.078;2022-07-23T07:47:51;5.32;;;1.80;;
20073;SDS011;10197;54.282;10.078;2022-07-23T07:50:20;9.13;;;2.25;;
20073;SDS011;10197;54.282;10.078;2022-07-23T07:52:48;5.20;;;1.85;;
20073;SDS011;10197;54.282;10.078;2022-07-23T07:55:14;4.82;;;1.95;;
20073;SDS011;10197;54.282;10.078;2022-07-23T07:57:41;7.07;;;1.73;;
20073;SDS011;10197;54.282;10.078;2022-07-23T08:00:09;3.08;;;1.80;;
20073;SDS011;10197;54.282;10.078;2022-07-23T08:02:41;4.13;;;2.17;;
20073;SDS011;10197;54.282;10.078;2022-07-23T08:05:09;10.15;;;2.28;;
20073;SDS011;10197;54.282;10.078;2022-07-23T08:07:38;5.00;;;1.77;;
20073;SDS011;10197;54.282;10.078;2022-07-23T08:10:05;5.40;;;1.98;;
20073;SDS011;10197;54.282;10.078;2022-07-23T08:12:40;6.43;;;2.10;;
20073;SDS011;10197;54.282;10.078;2022-07-23T08:15:08;3.20;;;1.90;;
20073;SDS011;10197;54.282;10.078;2022-07-23T08:17:35;5.00;;;1.95;;
20073;SDS011;10197;54.282;10.078;2022-07-23T08:20:02;4.60;;;1.85;;
20073;SDS011;10197;54.282;10.078;2022-07-23T08:22:48;6.55;;;2.10;;
20073;SDS011;10197;54.282;10.078;2022-07-23T08:25:19;6.25;;;2.28;;
20073;SDS011;10197;54.282;10.078;2022-07-23T08:27:46;6.82;;;2.53;;
20073;SDS011;10197;54.282;10.078;2022-07-23T08:30:14;5.00;;;2.08;;
20073;SDS011;10197;54.282;10.078;2022-07-23T08:32:48;8.75;;;2.08;;
20073;SDS011;10197;54.282;10.078;2022-07-23T08:35:23;5.72;;;1.92;;
20073;SDS011;10197;54.282;10.078;2022-07-23T08:37:53;2.63;;;1.40;;
20073;SDS011;10197;54.282;10.078;2022-07-23T08:40:20;3.90;;;1.80;;
20073;SDS011;10197;54.282;10.078;2022-07-23T08:42:47;2.95;;;1.60;;
20073;SDS011;10197;54.282;10.078;2022-07-23T08:45:15;3.47;;;1.60;;
20073;SDS011;10197;54.282;10.078;2022-07-23T08:47:44;2.10;;;1.50;;
20073;SDS011;10197;54.282;10.078;2022-07-23T08:50:11;5.30;;;2.80;;
20073;SDS011;10197;54.282;10.078;2022-07-23T08:52:38;3.72;;;1.73;;
20073;SDS011;10197;54.282;10.078;2022-07-23T08:55:08;2.95;;;1.40;;
20073;SDS011;10197;54.282;10.078;2022-07-23T08:57:35;3.30;;;1.60;;
20073;SDS011;10197;54.282;10.078;2022-07-23T09:00:03;4.68;;;1.73;;
20073;SDS011;10197;54.282;10.078;2022-07-23T09:02:33;3.65;;;1.50;;
20073;SDS011;10197;54.282;10.078;2022-07-23T09:05:05;6.07;;;1.73;;
20073;SDS011;10197;54.282;10.078;2022-07-23T09:07:32;4.32;;;1.77;;
20073;SDS011;10197;54.282;10.078;2022-07-23T09:10:06;4.28;;;2.13;;
20073;SDS011;10197;54.282;10.078;2022-07-23T09:12:36;3.85;;;2.67;;
20073;SDS011;10197;54.282;10.078;2022-07-23T09:15:04;5.07;;;1.60;;
20073;SDS011;10197;54.282;10.078;2022-07-23T09:17:39;3.80;;;1.83;;
20073;SDS011;10197;54.282;10.078;2022-07-23T09:20:08;5.35;;;2.30;;
20073;SDS011;10197;54.282;10.078;2022-07-23T09:22:35;4.55;;;3.00;;
20073;SDS011;10197;54.282;10.078;2022-07-23T09:25:03;5.63;;;1.65;;
20073;SDS011;10197;54.282;10.078;2022-07-23T09:27:45;4.75;;;2.30;;
20073;SDS011;10197;54.282;10.078;2022-07-23T09:30:13;5.57;;;1.50;;
20073;SDS011;10197;54.282;10.078;2022-07-23T09:32:40;4.38;;;1.40;;
20073;SDS011;10197;54.282;10.078;2022-07-23T09:35:07;4.93;;;1.40;;
20073;SDS011;10197;54.282;10.078;2022-07-23T09:37:34;2.45;;;1.40;;
20073;SDS011;10197;54.282;10.078;2022-07-23T09:40:05;1.98;;;1.50;;
20073;SDS011;10197;54.282;10.078;2022-07-23T09:42:35;4.40;;;1.50;;
20073;SDS011;10197;54.282;10.078;2022-07-23T09:45:02;3.72;;;1.50;;
20073;SDS011;10197;54.282;10.078;2022-07-23T09:47:30;2.55;;;1.27;;
20073;SDS011;10197;54.282;10.078;2022-07-23T09:49:58;2.58;;;1.40;;
20073;SDS011;10197;54.282;10.078;2022-07-23T09:52:26;4.47;;;1.38;;
20073;SDS011;10197;54.282;10.078;2022-07-23T09:54:57;2.42;;;1.30;;
20073;SDS011;10197;54.282;10.078;2022-07-23T09:57:24;3.60;;;1.33;;
20073;SDS011;10197;54.282;10.078;2022-07-23T09:59:54;4.13;;;1.20;;
20073;SDS011;10197;54.282;10.078;2022-07-23T10:02:24;4.13;;;1.73;;
20073;SDS011;10197;54.282;10.078;2022-07-23T10:05:16;8.57;;;1.30;;
20073;SDS011;10197;54.282;10.078;2022-07-23T10:08:06;3.60;;;1.35;;
20073;SDS011;10197;54.282;10.078;2022-07-23T10:10:54;3.22;;;1.52;;
20073;SDS011;10197;54.282;10.078;2022-07-23T10:13:40;4.07;;;1.50;;
20073;SDS011;10197;54.282;10.078;2022-07-23T10:16:45;4.25;;;1.10;;
20073;SDS011;10197;54.282;10.078;2022-07-23T10:19:12;3.28;;;1.20;;
20073;SDS011;10197;54.282;10.078;2022-07-23T10:21:40;3.50;;;1.52;;
20073;SDS011;10197;54.282;10.078;2022-07-23T10:24:15;3.22;;;1.40;;
20073;SDS011;10197;54.282;10.078;2022-07-23T10:26:47;4.68;;;1.33;;
20073;SDS011;10197;54.282;10.078;2022-07-23T10:29:22;9.82;;;2.10;;
20073;SDS011;10197;54.282;10.078;2022-07-23T10:31:56;3.80;;;1.40;;
20073;SDS011;10197;54.282;10.078;2022-07-23T10:34:29;2.53;;;1.25;;
20073;SDS011;10197;54.282;10.078;2022-07-23T10:37:02;2.15;;;1.05;;
20073;SDS011;10197;54.282;10.078;2022-07-23T10:39:35;4.47;;;1.88;;
20073;SDS011;10197;54.282;10.078;2022-07-23T10:42:09;4.00;;;1.50;;
20073;SDS011;10197;54.282;10.078;2022-07-23T10:44:40;3.45;;;1.55;;
20073;SDS011;10197;54.282;10.078;2022-07-23T10:47:10;4.13;;;1.80;;
20073;SDS011;10197;54.282;10.078;2022-07-23T10:49:44;5.50;;;1.80;;
20073;SDS011;10197;54.282;10.078;2022-07-23T10:52:24;3.35;;;1.40;;
20073;SDS011;10197;54.282;10.078;2022-07-23T10:54:53;5.35;;;2.38;;
20073;SDS011;10197;54.282;10.078;2022-07-23T10:57:21;3.95;;;1.40;;
20073;SDS011;10197;54.282;10.078;2022-07-23T11:02:49;3.15;;;1.30;;
20073;SDS011;10197;54.282;10.078;2022-07-23T11:05:17;1.67;;;1.25;;
20073;SDS011;10197;54.282;10.078;2022-07-23T11:10:42;3.20;;;1.30;;
20073;SDS011;10197;54.282;10.078;2022-07-23T11:13:30;2.65;;;1.42;;
20073;SDS011;10197;54.282;10.078;2022-07-23T11:16:08;2.83;;;1.40;;
20073;SDS011;10197;54.282;10.078;2022-07-23T11:18:59;3.55;;;1.40;;
20073;SDS011;10197;54.282;10.078;2022-07-23T11:21:46;2.88;;;1.30;;
20073;SDS011;10197;54.282;10.078;2022-07-23T11:24:17;2.67;;;1.40;;
20073;SDS011;10197;54.282;10.078;2022-07-23T11:26:46;1.75;;;1.08;;
20073;SDS011;10197;54.282;10.078;2022-07-23T11:32:05;2.25;;;1.40;;
20073;SDS011;10197;54.282;10.078;2022-07-23T11:34:34;4.13;;;1.42;;
20073;SDS011;10197;54.282;10.078;2022-07-23T11:37:03;4.00;;;1.42;;
20073;SDS011;10197;54.282;10.078;2022-07-23T11:39:30;2.80;;;1.40;;
20073;SDS011;10197;54.282;10.078;2022-07-23T11:41:58;2.90;;;1.30;;
20073;SDS011;10197;54.282;10.078;2022-07-23T11:44:25;1.90;;;1.35;;
20073;SDS011;10197;54.282;10.078;2022-07-23T11:46:55;2.85;;;1.30;;
20073;SDS011;10197;54.282;10.078;2022-07-23T11:49:23;4.78;;;1.40;;
20073;SDS011;10197;54.282;10.078;2022-07-23T11:54:36;3.90;;;1.70;;
20073;SDS011;10197;54.282;10.078;2022-07-23T11:57:04;4.78;;;1.95;;
20073;SDS011;10197;54.282;10.078;2022-07-23T11:59:31;7.18;;;2.05;;
20073;SDS011;10197;54.282;10.078;2022-07-23T12:01:59;5.60;;;1.92;;
20073;SDS011;10197;54.282;10.078;2022-07-23T12:04:36;4.43;;;2.05;;
20073;SDS011;10197;54.282;10.078;2022-07-23T12:07:04;5.22;;;1.70;;
20073;SDS011;10197;54.282;10.078;2022-07-23T12:09:33;5.03;;;2.17;;
20073;SDS011;10197;54.282;10.078;2022-07-23T12:12:00;6.80;;;2.05;;
20073;SDS011;10197;54.282;10.078;2022-07-23T12:14:27;4.55;;;1.77;;
20073;SDS011;10197;54.282;10.078;2022-07-23T12:17:06;7.35;;;1.83;;
20073;SDS011;10197;54.282;10.078;2022-07-23T12:19:33;6.63;;;1.60;;
20073;SDS011;10197;54.282;10.078;2022-07-23T12:22:00;4.72;;;1.60;;
20073;SDS011;10197;54.282;10.078;2022-07-23T12:24:27;2.75;;;1.52;;
20073;SDS011;10197;54.282;10.078;2022-07-23T12:27:11;5.18;;;1.60;;
20073;SDS011;10197;54.282;10.078;2022-07-23T12:29:39;3.17;;;1.48;;
20073;SDS011;10197;54.282;10.078;2022-07-23T12:32:16;3.85;;;1.60;;
20073;SDS011;10197;54.282;10.078;2022-07-23T12:34:47;3.35;;;1.58;;
20073;SDS011;10197;54.282;10.078;2022-07-23T12:37:28;3.08;;;1.52;;
20073;SDS011;10197;54.282;10.078;2022-07-23T12:42:53;2.20;;;1.30;;
20073;SDS011;10197;54.282;10.078;2022-07-23T12:45:21;2.65;;;1.20;;
20073;SDS011;10197;54.282;10.078;2022-07-23T12:47:52;3.13;;;1.65;;
20073;SDS011;10197;54.282;10.078;2022-07-23T12:50:30;2.60;;;1.40;;
20073;SDS011;10197;54.282;10.078;2022-07-23T12:53:05;4.07;;;1.63;;
20073;SDS011;10197;54.282;10.078;2022-07-23T12:55:33;2.45;;;1.55;;
20073;SDS011;10197;54.282;10.078;2022-07-23T12:58:05;4.78;;;1.80;;
20073;SDS011;10197;54.282;10.078;2022-07-23T13:00:48;7.57;;;1.63;;
20073;SDS011;10197;54.282;10.078;2022-07-23T13:03:26;5.63;;;1.55;;
20073;SDS011;10197;54.282;10.078;2022-07-23T13:06:01;1.73;;;1.27;;
20073;SDS011;10197;54.282;10.078;2022-07-23T13:08:30;2.92;;;1.33;;
20073;SDS011;10197;54.282;10.078;2022-07-23T13:10:58;5.72;;;1.40;;
20073;SDS011;10197;54.282;10.078;2022-07-23T13:13:29;2.42;;;1.00;;
20073;SDS011;10197;54.282;10.078;2022-07-23T13:15:57;2.22;;;0.90;;
20073;SDS011;10197;54.282;10.078;2022-07-23T13:18:25;2.42;;;1.08;;
20073;SDS011;10197;54.282;10.078;2022-07-23T13:20:53;3.90;;;1.38;;
20073;SDS011;10197;54.282;10.078;2022-07-23T13:23:20;3.97;;;1.17;;
20073;SDS011;10197;54.282;10.078;2022-07-23T13:25:47;3.17;;;1.17;;
20073;SDS011;10197;54.282;10.078;2022-07-23T13:28:15;4.93;;;1.40;;
20073;SDS011;10197;54.282;10.078;2022-07-23T13:30:43;2.92;;;1.30;;
20073;SDS011;10197;54.282;10.078;2022-07-23T13:33:11;3.75;;;1.30;;
20073;SDS011;10197;54.282;10.078;2022-07-23T13:35:38;7.47;;;1.38;;
20073;SDS011;10197;54.282;10.078;2022-07-23T13:38:05;3.88;;;1.35;;
20073;SDS011;10197;54.282;10.078;2022-07-23T13:40:34;2.88;;;1.30;;
20073;SDS011;10197;54.282;10.078;2022-07-23T13:43:04;3.70;;;1.50;;
20073;SDS011;10197;54.282;10.078;2022-07-23T13:45:31;3.10;;;1.38;;
20073;SDS011;10197;54.282;10.078;2022-07-23T13:47:59;2.22;;;1.42;;
20073;SDS011;10197;54.282;10.078;2022-07-23T13:50:26;2.17;;;1.20;;
20073;SDS011;10197;54.282;10.078;2022-07-23T13:52:53;4.45;;;1.40;;
20073;SDS011;10197;54.282;10.078;2022-07-23T13:55:20;3.88;;;1.55;;
20073;SDS011;10197;54.282;10.078;2022-07-23T13:57:47;4.40;;;1.15;;
20073;SDS011;10197;54.282;10.078;2022-07-23T14:00:14;3.08;;;1.38;;
20073;SDS011;10197;54.282;10.078;2022-07-23T14:02:41;3.13;;;1.20;;
20073;SDS011;10197;54.282;10.078;2022-07-23T14:05:10;2.83;;;1.20;;
20073;SDS011;10197;54.282;10.078;2022-07-23T14:07:37;1.63;;;1.17;;
20073;SDS011;10197;54.282;10.078;2022-07-23T14:10:06;1.90;;;1.25;;
20073;SDS011;10197;54.282;10.078;2022-07-23T14:12:34;5.13;;;1.40;;
20073;SDS011;10197;54.282;10.078;2022-07-23T14:15:02;3.83;;;1.30;;
20073;SDS011;10197;54.282;10.078;2022-07-23T14:17:29;2.38;;;1.13;;
20073;SDS011;10197;54.282;10.078;2022-07-23T14:19:56;4.68;;;1.38;;
20073;SDS011;10197;54.282;10.078;2022-07-23T14:22:25;4.63;;;1.27;;
20073;SDS011;10197;54.282;10.078;2022-07-23T14:24:52;2.35;;;1.35;;
20073;SDS011;10197;54.282;10.078;2022-07-23T14:27:19;2.63;;;1.38;;
20073;SDS011;10197;54.282;10.078;2022-07-23T14:29:45;5.78;;;1.50;;
20073;SDS011;10197;54.282;10.078;2022-07-23T14:32:12;4.00;;;1.50;;
20073;SDS011;10197;54.282;10.078;2022-07-23T14:34:39;3.50;;;1.40;;
20073;SDS011;10197;54.282;10.078;2022-07-23T14:37:06;2.83;;;1.20;;
20073;SDS011;10197;54.282;10.078;2022-07-23T14:39:34;4.53;;;1.55;;
20073;SDS011;10197;54.282;10.078;2022-07-23T14:42:01;2.83;;;1.63;;
20073;SDS011;10197;54.282;10.078;2022-07-23T14:44:28;2.03;;;1.20;;
20073;SDS011;10197;54.282;10.078;2022-07-23T14:46:55;4.38;;;1.80;;
20073;SDS011;10197;54.282;10.078;2022-07-23T14:49:23;5.88;;;1.40;;
20073;SDS011;10197;54.282;10.078;2022-07-23T14:51:50;4.38;;;1.30;;
20073;SDS011;10197;54.282;10.078;2022-07-23T14:54:17;3.10;;;1.55;;
20073;SDS011;10197;54.282;10.078;2022-07-23T14:56:46;5.07;;;1.75;;
20073;SDS011;10197;54.282;10.078;2022-07-23T14:59:16;4.20;;;1.35;;
20073;SDS011;10197;54.282;10.078;2022-07-23T15:01:43;3.20;;;1.40;;
20073;SDS011;10197;54.282;10.078;2022-07-23T15:04:09;5.38;;;1.70;;
20073;SDS011;10197;54.282;10.078;2022-07-23T15:06:39;2.72;;;1.35;;
20073;SDS011;10197;54.282;10.078;2022-07-23T15:09:08;2.55;;;1.65;;
20073;SDS011;10197;54.282;10.078;2022-07-23T15:11:35;3.75;;;1.50;;
20073;SDS011;10197;54.282;10.078;2022-07-23T15:14:04;5.70;;;1.60;;
20073;SDS011;10197;54.282;10.078;2022-07-23T15:16:31;3.63;;;1.60;;
20073;SDS011;10197;54.282;10.078;2022-07-23T15:18:59;4.50;;;1.45;;
20073;SDS011;10197;54.282;10.078;2022-07-23T15:21:26;6.38;;;1.50;;
20073;SDS011;10197;54.282;10.078;2022-07-23T15:23:54;4.15;;;1.30;;
20073;SDS011;10197;54.282;10.078;2022-07-23T15:26:24;2.28;;;1.35;;
20073;SDS011;10197;54.282;10.078;2022-07-23T15:28:51;2.97;;;1.48;;
20073;SDS011;10197;54.282;10.078;2022-07-23T15:31:19;3.85;;;1.30;;
20073;SDS011;10197;54.282;10.078;2022-07-23T15:33:46;2.78;;;1.30;;
20073;SDS011;10197;54.282;10.078;2022-07-23T15:36:12;3.50;;;1.40;;